Terminal Aerodrome Forecast
Issued by NWS

Home | Current Version | Previous Version | Graphics & Text | Print | Product List | Glossary On
Versions: 1 2 3 4 5 6 7 8 9 10 11 12 13 14 15 16 17 18 19 20 21 22 23 24 25 26 27 28 29 30 31 32
000
FTUS43 KLOT 022327
TAFMDW
TAF
KMDW 022327Z 0300/0324 23005KT P6SM FEW050 BKN250 PROB30 0310/0313
      6SM -TSRA BKN045CB
     FM031300 22005KT P6SM SCT050 SCT250
     FM032200 14006KT P6SM SCT050 BKN250 PROB30 0322/0324 6SM -TSRA
      BKN045CB=

USA.gov is the U.S. government's official web portal to all federal, state and local government web resources and services.